createdAt,value
2018-08-04T00:02:19.536Z,100135.53
2018-08-04T00:04:47.700Z,100132.20
2018-08-04T00:07:15.318Z,100130.97
2018-08-04T00:09:43.647Z,100138.01
2018-08-04T00:12:14.617Z,100133.61
2018-08-04T00:14:44.243Z,100125.11
2018-08-04T00:17:11.842Z,100125.62
2018-08-04T00:19:40.747Z,100121.73
2018-08-04T00:22:08.307Z,100123.34
2018-08-04T00:24:35.859Z,100124.60
2018-08-04T00:27:03.471Z,100126.08
2018-08-04T00:29:33.214Z,100123.05
2018-08-04T00:32:01.370Z,100116.97
2018-08-04T00:34:30.125Z,100112.27
2018-08-04T00:36:58.049Z,100119.09
2018-08-04T00:39:26.102Z,100119.91
2018-08-04T00:41:53.743Z,100123.08
2018-08-04T00:44:22.956Z,100124.05
2018-08-04T00:46:50.876Z,100122.37
2018-08-04T00:49:18.500Z,100120.70
2018-08-04T00:51:46.919Z,100122.06
2018-08-04T00:54:14.477Z,100123.43
2018-08-04T00:56:42.304Z,100123.63
2018-08-04T00:59:09.850Z,100123.02
2018-08-04T01:01:38.276Z,100124.59
2018-08-04T01:04:05.812Z,100121.97
2018-08-04T01:06:33.390Z,100125.42
2018-08-04T01:09:01.019Z,100126.30
2018-08-04T01:11:28.850Z,100125.42
2018-08-04T01:13:56.405Z,100135.31
2018-08-04T01:16:23.958Z,100132.45
2018-08-04T01:18:51.599Z,100134.46
2018-08-04T01:21:19.588Z,100125.86
2018-08-04T01:23:47.131Z,100130.40
2018-08-04T01:26:14.796Z,100129.98
2018-08-04T01:28:42.419Z,100127.05
2018-08-04T01:31:10.418Z,100129.38
2018-08-04T01:33:37.984Z,100131.69
2018-08-04T01:36:05.619Z,100142.19
2018-08-04T01:38:33.486Z,100139.39
2018-08-04T01:41:01.075Z,100142.42
2018-08-04T01:43:28.660Z,100133.18
2018-08-04T01:45:56.293Z,100129.40
2018-08-04T01:48:24.169Z,100130.86
2018-08-04T01:50:51.739Z,100133.41
2018-08-04T01:53:19.354Z,100132.77
2018-08-04T01:55:50.437Z,100134.88
2018-08-04T01:58:18.241Z,100129.55
2018-08-04T02:00:45.786Z,100126.92
2018-08-04T02:03:13.342Z,100124.63
2018-08-04T02:05:42.050Z,100128.19
2018-08-04T02:08:09.590Z,100128.37
2018-08-04T02:10:37.231Z,100126.18
2018-08-04T02:13:05.483Z,100129.43
2018-08-04T02:15:33.047Z,100128.59
2018-08-04T02:18:00.600Z,100127.55
2018-08-04T02:20:28.239Z,100131.30
2018-08-04T02:22:56.046Z,100130.80
2018-08-04T02:25:23.664Z,100134.47
2018-08-04T02:27:51.287Z,100135.17
2018-08-04T02:30:18.864Z,100132.14
2018-08-04T02:32:46.778Z,100126.66
2018-08-04T02:35:14.391Z,100125.58
2018-08-04T02:37:42.017Z,100126.94
2018-08-04T02:40:09.630Z,100119.19
2018-08-04T02:42:37.468Z,100122.85
2018-08-04T02:45:05.039Z,100133.00
2018-08-04T02:47:32.624Z,100131.41
2018-08-04T02:50:00.246Z,100124.72
2018-08-04T02:52:28.993Z,100120.28
2018-08-04T02:54:56.526Z,100124.06
2018-08-04T02:57:24.330Z,100123.62
2018-08-04T02:59:52.207Z,100120.16
2018-08-04T03:02:19.805Z,100114.83
2018-08-04T03:04:47.427Z,100117.63
2018-08-04T03:07:15.072Z,100120.53
2018-08-04T03:09:43.060Z,100122.19
2018-08-04T03:12:10.574Z,100128.98
2018-08-04T03:14:38.215Z,100126.09
2018-08-04T03:17:08.779Z,100128.13
2018-08-04T03:19:36.570Z,100134.05
2018-08-04T03:22:04.111Z,100128.37
2018-08-04T03:24:31.705Z,100132.42
2018-08-04T03:26:59.270Z,100125.37
2018-08-04T03:29:27.977Z,100121.70
2018-08-04T03:31:55.567Z,100124.49
2018-08-04T03:34:23.167Z,100125.28
2018-08-04T03:36:50.698Z,100130.50
2018-08-04T03:39:19.155Z,100130.38
2018-08-04T03:41:46.816Z,100131.55
2018-08-04T03:44:14.446Z,100131.73
2018-08-04T03:46:42.084Z,100118.74
2018-08-04T03:49:10.024Z,100120.16
2018-08-04T03:51:37.691Z,100122.66
2018-08-04T03:54:05.226Z,100120.72
2018-08-04T03:56:32.804Z,100112.56
2018-08-04T03:59:00.692Z,100118.27
2018-08-04T04:01:28.266Z,100123.00
2018-08-04T04:03:55.808Z,100129.02
2018-08-04T04:06:23.341Z,100131.47
2018-08-04T04:08:51.222Z,100141.70
2018-08-04T04:11:18.770Z,100134.78
2018-08-04T04:13:46.437Z,100141.44
2018-08-04T04:16:14.055Z,100141.44
2018-08-04T04:18:41.947Z,100148.22
2018-08-04T04:21:09.505Z,100148.76
2018-08-04T04:23:37.067Z,100141.75
2018-08-04T04:26:04.651Z,100145.14
2018-08-04T04:28:32.676Z,100142.20
2018-08-04T04:31:00.270Z,100136.91
2018-08-04T04:33:27.894Z,100146.86
2018-08-04T04:35:55.895Z,100149.71
2018-08-04T04:38:23.500Z,100147.45
2018-08-04T04:40:51.050Z,100146.48
2018-08-04T04:43:18.688Z,100140.18
2018-08-04T04:45:46.710Z,100141.33
2018-08-04T04:48:14.356Z,100144.34
2018-08-04T04:50:41.907Z,100142.89
2018-08-04T04:53:09.484Z,100144.85
2018-08-04T04:55:37.454Z,100134.56
2018-08-04T04:58:05.086Z,100135.37
2018-08-04T05:00:32.643Z,100132.20
2018-08-04T05:03:01.743Z,100135.86
2018-08-04T05:05:29.379Z,100138.07
2018-08-04T05:07:57.005Z,100138.45
2018-08-04T05:10:24.617Z,100136.31
2018-08-04T05:12:52.451Z,100133.70
2018-08-04T05:15:20.067Z,100139.64
2018-08-04T05:17:47.602Z,100132.65
2018-08-04T05:20:15.158Z,100141.13
2018-08-04T05:22:43.067Z,100143.97
2018-08-04T05:25:10.651Z,100148.52
2018-08-04T05:27:38.283Z,100140.56
2018-08-04T05:30:06.530Z,100142.05
2018-08-04T05:32:34.450Z,100138.09
2018-08-04T05:35:02.058Z,100141.44
2018-08-04T05:37:29.655Z,100140.70
2018-08-04T05:39:57.193Z,100138.52
2018-08-04T05:42:26.028Z,100136.30
2018-08-04T05:44:53.665Z,100129.41
2018-08-04T05:47:21.274Z,100128.13
2018-08-04T05:49:50.264Z,100141.91
2018-08-04T05:52:17.906Z,100140.23
2018-08-04T05:54:45.456Z,100148.10
2018-08-04T05:57:13.036Z,100149.89
2018-08-04T05:59:40.864Z,100156.58
2018-08-04T06:02:08.485Z,100158.23
2018-08-04T06:04:36.091Z,100163.14
2018-08-04T06:07:03.919Z,100164.55
2018-08-04T06:09:31.491Z,100166.78
2018-08-04T06:11:59.123Z,100161.23
2018-08-04T06:14:26.998Z,100152.81
2018-08-04T06:16:54.632Z,100151.27
2018-08-04T06:19:22.264Z,100148.05
2018-08-04T06:21:50.099Z,100153.51
2018-08-04T06:24:17.650Z,100148.41
2018-08-04T06:26:45.211Z,100154.17
2018-08-04T06:29:13.204Z,100153.70
2018-08-04T06:31:40.763Z,100154.55
2018-08-04T06:34:08.584Z,100162.33
2018-08-04T06:36:36.530Z,100168.72
2018-08-04T06:39:05.158Z,100170.81
2018-08-04T06:41:32.786Z,100169.68
2018-08-04T06:44:00.606Z,100165.81
2018-08-04T06:46:28.224Z,100160.47
2018-08-04T06:48:55.850Z,100168.75
2018-08-04T06:51:23.769Z,100160.36
2018-08-04T06:53:51.332Z,100167.20
2018-08-04T06:56:18.951Z,100164.27
2018-08-04T06:58:47.435Z,100164.88
2018-08-04T07:01:15.063Z,100166.24
2018-08-04T07:03:42.718Z,100168.02
2018-08-04T07:06:10.271Z,100157.84
2018-08-04T07:08:40.880Z,100164.22
2018-08-04T07:11:09.463Z,100159.16
2018-08-04T07:13:37.797Z,100154.11
2018-08-04T07:16:05.326Z,100156.64
2018-08-04T07:18:34.305Z,100165.95
2018-08-04T07:21:02.007Z,100168.89
2018-08-04T07:23:29.625Z,100168.95
2018-08-04T07:25:57.539Z,100165.02
2018-08-04T07:28:25.141Z,100176.65
2018-08-04T07:30:52.737Z,100175.13
2018-08-04T07:33:20.650Z,100175.94
2018-08-04T07:35:49.189Z,100174.73
2018-08-04T07:38:16.759Z,100181.53
2018-08-04T07:40:44.769Z,100171.44
2018-08-04T07:43:12.372Z,100172.12
2018-08-04T07:45:39.942Z,100172.55
2018-08-04T07:48:07.999Z,100170.27
2018-08-04T07:50:35.602Z,100172.74
2018-08-04T07:53:03.210Z,100174.09
2018-08-04T07:55:31.087Z,100173.55
2018-08-04T07:57:58.646Z,100175.00
2018-08-04T08:00:27.336Z,100178.89
2018-08-04T08:02:55.310Z,100179.41
2018-08-04T08:05:23.056Z,100177.98
2018-08-04T08:07:50.660Z,100176.92
2018-08-04T08:10:19.618Z,100180.27
2018-08-04T08:12:47.288Z,100177.06
2018-08-04T08:15:15.700Z,100183.94
2018-08-04T08:17:43.598Z,100187.53
2018-08-04T08:20:11.233Z,100188.08
2018-08-04T08:22:41.414Z,100190.69
2018-08-04T08:25:09.751Z,100191.14
2018-08-04T08:27:37.659Z,100200.72
2018-08-04T08:30:05.649Z,100196.61
2018-08-04T08:32:33.464Z,100193.78
2018-08-04T08:35:01.008Z,100202.00
2018-08-04T08:37:28.613Z,100202.09
2018-08-04T08:39:56.551Z,100202.25
2018-08-04T08:42:25.696Z,100201.41
2018-08-04T08:44:53.329Z,100210.32
2018-08-04T08:47:21.304Z,100215.23
2018-08-04T08:49:49.825Z,100206.53
2018-08-04T08:52:17.478Z,100209.91
2018-08-04T08:54:45.631Z,100207.78
2018-08-04T08:57:14.254Z,100205.78
2018-08-04T08:59:41.880Z,100206.81
2018-08-04T09:02:10.416Z,100208.50
2018-08-04T09:04:37.962Z,100209.95
2018-08-04T09:07:05.847Z,100210.53
2018-08-04T09:09:33.670Z,100214.66
2018-08-04T09:12:01.263Z,100216.61
2018-08-04T09:14:28.843Z,100210.09
2018-08-04T09:16:56.674Z,100208.67
2018-08-04T09:19:24.531Z,100201.20
2018-08-04T09:21:52.131Z,100206.03
2018-08-04T09:24:19.955Z,100200.36
2018-08-04T09:26:47.626Z,100206.86
2018-08-04T09:29:15.191Z,100205.50
2018-08-04T09:31:44.678Z,100201.05
2018-08-04T09:34:12.287Z,100195.59
2018-08-04T09:36:39.921Z,100201.06
2018-08-04T09:39:07.824Z,100204.08
2018-08-04T09:41:35.440Z,100198.91
2018-08-04T09:44:03.911Z,100196.33
2018-08-04T09:46:31.714Z,100200.32
2018-08-04T09:48:59.367Z,100194.44
2018-08-04T09:51:26.899Z,100197.39
2018-08-04T09:53:54.831Z,100193.95
2018-08-04T09:56:24.231Z,100204.92
2018-08-04T09:58:51.875Z,100198.73
2018-08-04T10:01:24.778Z,100202.89
2018-08-04T10:03:53.219Z,100194.83
2018-08-04T10:06:21.645Z,100197.23
2018-08-04T10:08:49.439Z,100195.72
2018-08-04T10:11:17.011Z,100204.09
2018-08-04T10:13:45.507Z,100201.06
2018-08-04T10:16:13.584Z,100202.72
2018-08-04T10:18:41.211Z,100209.09
2018-08-04T10:21:11.762Z,100214.58
2018-08-04T10:23:39.590Z,100207.03
2018-08-04T10:26:08.705Z,100206.66
2018-08-04T10:28:36.459Z,100209.53
2018-08-04T10:31:04.337Z,100214.67
2018-08-04T10:33:31.876Z,100211.47
2018-08-04T10:35:59.464Z,100204.91
2018-08-04T10:38:27.334Z,100207.95
2018-08-04T10:40:55.284Z,100204.39
2018-08-04T10:43:24.668Z,100204.09
2018-08-04T10:45:52.563Z,100204.22
2018-08-04T10:48:22.267Z,100207.03
2018-08-04T10:50:49.919Z,100205.12
2018-08-04T10:53:17.806Z,100207.69
2018-08-04T10:55:46.034Z,100205.84
2018-08-04T10:58:14.655Z,100208.82
2018-08-04T11:00:42.550Z,100203.84
2018-08-04T11:03:11.490Z,100204.08
2018-08-04T11:05:40.444Z,100202.69
2018-08-04T11:08:08.350Z,100199.89
2018-08-04T11:10:36.569Z,100192.91
2018-08-04T11:13:04.395Z,100197.11
2018-08-04T11:15:32.284Z,100193.11
2018-08-04T11:18:01.083Z,100198.56
2018-08-04T11:20:28.757Z,100192.16
2018-08-04T11:22:56.650Z,100195.14
2018-08-04T11:25:27.163Z,100191.66
2018-08-04T11:27:54.787Z,100184.32
2018-08-04T11:30:22.627Z,100184.85
2018-08-04T11:32:52.506Z,100183.23
2018-08-04T11:35:21.455Z,100177.31
2018-08-04T11:37:50.405Z,100176.72
2018-08-04T11:40:20.737Z,100174.37
2018-08-04T11:42:48.612Z,100170.56
2018-08-04T11:45:17.202Z,100155.67
2018-08-04T11:47:44.749Z,100158.99
2018-08-04T11:50:13.200Z,100162.06
2018-08-04T11:52:42.698Z,100161.61
2018-08-04T11:55:12.536Z,100152.89
2018-08-04T11:57:43.226Z,100150.73
2018-08-04T12:00:10.853Z,100162.29
2018-08-04T12:02:40.399Z,100158.27
2018-08-04T12:05:08.227Z,100157.23
2018-08-04T12:07:35.829Z,100152.73
2018-08-04T12:10:03.457Z,100153.66
2018-08-04T12:12:31.337Z,100150.98
2018-08-04T12:14:58.854Z,100151.82
2018-08-04T12:17:26.533Z,100144.64
2018-08-04T12:19:54.420Z,100148.69
2018-08-04T12:22:23.110Z,100148.50
2018-08-04T12:24:50.726Z,100145.29
2018-08-04T12:27:18.669Z,100145.77
2018-08-04T12:29:46.235Z,100147.92
2018-08-04T12:32:13.843Z,100152.06
2018-08-04T12:34:42.446Z,100146.58
2018-08-04T12:37:10.068Z,100143.97
2018-08-04T12:39:38.422Z,100140.91
2018-08-04T12:42:07.240Z,100139.34
2018-08-04T12:44:34.868Z,100139.02
2018-08-04T12:47:02.678Z,100141.02
2018-08-04T12:49:30.621Z,100134.23
2018-08-04T12:51:58.209Z,100135.55
2018-08-04T12:54:26.434Z,100131.50
2018-08-04T12:56:54.293Z,100127.72
2018-08-04T12:59:23.108Z,100118.16
2018-08-04T13:01:52.174Z,100116.62
2018-08-04T13:04:21.287Z,100126.30
2018-08-04T13:06:48.818Z,100125.14
2018-08-04T13:09:17.509Z,100118.56
2018-08-04T13:11:45.416Z,100116.68
2018-08-04T13:14:12.952Z,100115.13
2018-08-04T13:16:40.556Z,100111.68
2018-08-04T13:19:08.378Z,100115.37
2018-08-04T13:21:36.011Z,100122.23
2018-08-04T13:24:03.550Z,100116.53
2018-08-04T13:26:33.615Z,100113.12
2018-08-04T13:29:01.190Z,100114.40
2018-08-04T13:31:28.739Z,100111.66
2018-08-04T13:33:56.668Z,100112.64
2018-08-04T13:36:25.599Z,100109.50
2018-08-04T13:38:54.058Z,100108.14
2018-08-04T13:41:21.909Z,100109.73
2018-08-04T13:43:49.444Z,100116.06
2018-08-04T13:46:17.867Z,100114.09
2018-08-04T13:48:46.435Z,100098.69
2018-08-04T13:51:15.565Z,100099.83
2018-08-04T13:53:43.166Z,100103.64
2018-08-04T13:56:12.667Z,100100.70
2018-08-04T13:58:41.240Z,100107.20
2018-08-04T14:01:23.207Z,100096.75
2018-08-04T14:03:51.108Z,100101.66
2018-08-04T14:06:19.446Z,100104.59
2018-08-04T14:08:47.051Z,100104.77
2018-08-04T14:11:14.930Z,100096.91
2018-08-04T14:13:43.131Z,100096.16
2018-08-04T14:16:10.646Z,100093.93
2018-08-04T14:18:38.589Z,100099.58
2018-08-04T14:21:06.962Z,100090.20
2018-08-04T14:23:34.482Z,100089.62
2018-08-04T14:26:05.737Z,100087.94
2018-08-04T14:28:34.568Z,100086.41
2018-08-04T14:31:03.510Z,100080.47
2018-08-04T14:33:31.395Z,100091.83
2018-08-04T14:38:41.680Z,100091.99
2018-08-04T14:41:10.535Z,100088.00
2018-08-04T14:43:38.483Z,100084.66
2018-08-04T14:46:06.076Z,100080.07
2018-08-04T14:48:33.890Z,100082.31
2018-08-04T14:51:01.507Z,100073.47
2018-08-04T14:53:30.232Z,100082.70
2018-08-04T14:56:00.088Z,100079.06
2018-08-04T14:58:27.610Z,100072.52
2018-08-04T15:00:56.929Z,100072.16
2018-08-04T15:03:27.782Z,100068.07
2018-08-04T15:05:55.398Z,100071.39
2018-08-04T15:08:25.271Z,100074.83
2018-08-04T15:10:54.719Z,100067.80
2018-08-04T15:13:23.227Z,100065.64
2018-08-04T15:15:52.280Z,100062.27
2018-08-04T15:18:20.159Z,100064.23
2018-08-04T15:20:47.772Z,100057.36
2018-08-04T15:23:16.046Z,100064.06
2018-08-04T15:25:43.955Z,100070.52
2018-08-04T15:28:11.546Z,100064.95
2018-08-04T15:30:39.295Z,100069.99
2018-08-04T15:33:07.291Z,100068.41
2018-08-04T15:35:38.119Z,100069.61
2018-08-04T15:38:05.663Z,100064.33
2018-08-04T15:40:34.727Z,100067.70
2018-08-04T15:43:02.283Z,100069.56
2018-08-04T15:45:30.574Z,100067.87
2018-08-04T15:47:58.485Z,100067.28
2018-08-04T15:50:26.039Z,100063.22
2018-08-04T15:52:53.566Z,100057.42
2018-08-04T15:55:21.654Z,100067.00
2018-08-04T15:57:51.283Z,100067.72
2018-08-04T16:00:18.920Z,100065.62
2018-08-04T16:02:47.594Z,100067.63
2018-08-04T16:05:15.635Z,100054.95
2018-08-04T16:07:43.849Z,100054.67
2018-08-04T16:10:11.928Z,100050.84
2018-08-04T16:12:39.523Z,100059.72
2018-08-04T16:15:07.076Z,100059.34
2018-08-04T16:17:36.251Z,100054.84
2018-08-04T16:20:03.777Z,100063.24
2018-08-04T16:22:31.836Z,100064.23
2018-08-04T16:25:00.514Z,100057.30
2018-08-04T16:27:28.155Z,100065.55
2018-08-04T16:29:55.774Z,100058.91
2018-08-04T16:32:24.108Z,100066.94
2018-08-04T16:34:51.674Z,100065.52
2018-08-04T16:37:19.307Z,100063.27
2018-08-04T16:40:02.470Z,100064.17
2018-08-04T16:42:30.145Z,100069.81
2018-08-04T16:44:57.978Z,100075.62
2018-08-04T16:47:25.527Z,100070.56
2018-08-04T16:49:53.107Z,100067.13
2018-08-04T16:52:21.195Z,100072.47
2018-08-04T16:54:48.779Z,100074.97
2018-08-04T16:57:16.364Z,100076.23
2018-08-04T16:59:47.672Z,100074.73
2018-08-04T17:02:15.263Z,100074.56
2018-08-04T17:04:43.430Z,100075.81
2018-08-04T17:07:13.370Z,100076.78
2018-08-04T17:09:40.966Z,100073.03
2018-08-04T17:14:59.160Z,100076.72
2018-08-04T17:17:26.686Z,100078.05
2018-08-04T17:19:55.399Z,100077.99
2018-08-04T17:22:23.306Z,100073.45
2018-08-04T17:24:51.541Z,100073.94
2018-08-04T17:27:19.964Z,100083.75
2018-08-04T17:29:49.471Z,100084.50
2018-08-04T17:32:18.658Z,100093.73
2018-08-04T17:34:46.261Z,100091.37
2018-08-04T17:37:15.265Z,100081.05
2018-08-04T17:39:42.862Z,100092.78
2018-08-04T17:42:10.475Z,100089.58
2018-08-04T17:44:39.518Z,100095.50
2018-08-04T17:47:08.093Z,100094.48
2018-08-04T17:49:35.614Z,100089.62
2018-08-04T17:52:03.685Z,100093.05
2018-08-04T17:54:31.734Z,100099.59
2018-08-04T17:56:59.512Z,100098.37
2018-08-04T17:59:27.464Z,100108.77
2018-08-04T18:01:55.867Z,100107.30
2018-08-04T18:04:24.079Z,100108.00
2018-08-04T18:06:53.126Z,100107.91
2018-08-04T18:09:20.662Z,100108.66
2018-08-04T18:11:48.243Z,100112.94
2018-08-04T18:14:17.553Z,100108.98
2018-08-04T18:16:46.523Z,100116.32
2018-08-04T18:19:14.064Z,100121.15
2018-08-04T18:21:41.949Z,100115.47
2018-08-04T18:24:09.555Z,100121.77
2018-08-04T18:26:38.458Z,100126.52
2018-08-04T18:29:07.185Z,100127.77
2018-08-04T18:39:32.210Z,100138.42
2018-08-04T18:41:59.786Z,100140.97
2018-08-04T18:44:27.655Z,100140.36
2018-08-04T18:46:56.085Z,100140.70
2018-08-04T18:49:23.610Z,100151.39
2018-08-04T18:51:51.482Z,100159.98
2018-08-04T18:54:33.274Z,100152.66
2018-08-04T18:57:01.146Z,100162.63
2018-08-04T18:59:29.583Z,100165.09
2018-08-04T19:01:57.116Z,100161.88
2018-08-04T19:04:25.829Z,100172.94
2018-08-04T19:06:53.459Z,100173.17
2018-08-04T19:09:21.082Z,100185.08
2018-08-04T19:11:48.915Z,100183.73
2018-08-04T19:14:16.545Z,100186.52
2018-08-04T19:16:44.090Z,100196.73
2018-08-04T19:19:11.927Z,100194.09
2018-08-04T19:21:39.597Z,100191.67
2018-08-04T19:24:07.270Z,100194.26
2018-08-04T19:26:35.175Z,100201.39
2018-08-04T19:29:03.646Z,100204.23
2018-08-04T19:31:31.251Z,100202.39
2018-08-04T19:34:00.848Z,100206.05
2018-08-04T19:36:28.714Z,100215.72
2018-08-04T19:38:56.630Z,100210.93
2018-08-04T19:41:24.522Z,100219.11
2018-08-04T19:43:52.226Z,100222.02
2018-08-04T19:46:20.415Z,100229.93
2018-08-04T19:48:48.310Z,100235.84
2018-08-04T19:51:16.670Z,100237.89
2018-08-04T19:53:44.286Z,100232.45
2018-08-04T19:56:12.180Z,100235.33
2018-08-04T19:58:39.778Z,100249.17
2018-08-04T20:01:07.700Z,100240.70
2018-08-04T20:03:35.656Z,100250.56
2018-08-04T20:06:04.393Z,100253.15
2018-08-04T20:08:32.182Z,100251.60
2018-08-04T20:10:59.956Z,100254.55
2018-08-04T20:13:27.565Z,100259.62
2018-08-04T20:15:56.538Z,100259.39
2018-08-04T20:18:26.132Z,100261.52
2018-08-04T20:20:54.103Z,100266.59
2018-08-04T20:23:22.080Z,100269.44
2018-08-04T20:25:50.019Z,100274.81
2018-08-04T20:28:18.599Z,100274.39
2018-08-04T20:30:50.482Z,100279.25
2018-08-04T20:33:18.551Z,100278.55
2018-08-04T20:35:46.664Z,100279.81
2018-08-04T20:38:14.287Z,100282.76
2018-08-04T20:40:43.938Z,100287.31
2018-08-04T20:43:13.739Z,100285.55
2018-08-04T20:45:41.359Z,100288.39
2018-08-04T20:48:09.246Z,100282.77
2018-08-04T20:50:37.838Z,100284.33
2018-08-04T20:53:07.438Z,100287.83
2018-08-04T20:55:35.246Z,100284.37
2018-08-04T20:58:03.787Z,100288.89
2018-08-04T21:00:31.374Z,100288.19
2018-08-04T21:02:59.346Z,100287.38
2018-08-04T21:05:27.814Z,100280.68
2018-08-04T21:07:55.907Z,100287.10
2018-08-04T21:10:23.471Z,100286.56
2018-08-04T21:12:51.175Z,100287.52
2018-08-04T21:15:19.570Z,100289.64
2018-08-04T21:17:47.195Z,100291.11
2018-08-04T21:20:15.810Z,100290.59
2018-08-04T21:22:44.335Z,100285.78
2018-08-04T21:25:12.614Z,100296.50
2018-08-04T21:27:40.198Z,100294.72
2018-08-04T21:30:08.991Z,100288.23
2018-08-04T21:32:36.599Z,100292.22
2018-08-04T21:35:04.157Z,100293.07
2018-08-04T21:37:32.858Z,100298.23
2018-08-04T21:40:00.407Z,100306.75
2018-08-04T21:42:28.564Z,100303.06
2018-08-04T21:44:56.620Z,100308.55
2018-08-04T21:47:24.198Z,100314.75
2018-08-04T21:49:52.641Z,100312.97
2018-08-04T21:52:20.656Z,100315.28
2018-08-04T21:54:48.239Z,100319.74
2018-08-04T21:57:15.817Z,100314.61
2018-08-04T21:59:43.699Z,100319.13
2018-08-04T22:02:11.323Z,100326.91
2018-08-04T22:04:41.830Z,100322.39
2018-08-04T22:07:10.346Z,100324.89
2018-08-04T22:09:37.887Z,100334.56
2018-08-04T22:12:05.516Z,100330.25
2018-08-04T22:14:33.395Z,100336.45
2018-08-04T22:17:01.659Z,100330.36
2018-08-04T22:19:30.137Z,100330.45
2018-08-04T22:21:58.056Z,100328.55
2018-08-04T22:24:25.695Z,100328.44
2018-08-04T22:26:56.584Z,100335.37
2018-08-04T22:29:24.424Z,100333.27
2018-08-04T22:31:52.736Z,100330.73
2018-08-04T22:34:20.282Z,100328.05
2018-08-04T22:36:48.211Z,100332.14
2018-08-04T22:39:15.719Z,100331.28
2018-08-04T22:41:43.254Z,100331.05
2018-08-04T22:44:11.217Z,100331.55
2018-08-04T22:46:39.368Z,100336.13
2018-08-04T22:49:06.926Z,100338.96
2018-08-04T22:51:34.730Z,100338.21
2018-08-04T22:54:02.326Z,100336.92
2018-08-04T22:56:29.870Z,100337.34
2018-08-04T22:58:57.689Z,100338.77
2018-08-04T23:01:26.641Z,100334.48
2018-08-04T23:03:54.500Z,100333.69
2018-08-04T23:06:22.427Z,100339.72
2018-08-04T23:08:52.615Z,100339.50
2018-08-04T23:11:20.187Z,100337.89
2018-08-04T23:13:48.090Z,100338.63
2018-08-04T23:16:15.945Z,100343.94
2018-08-04T23:18:43.547Z,100341.83
2018-08-04T23:21:11.487Z,100343.38
2018-08-04T23:23:39.096Z,100346.39
2018-08-04T23:26:06.610Z,100348.54
2018-08-04T23:28:34.452Z,100351.67
2018-08-04T23:31:02.015Z,100347.97
2018-08-04T23:33:29.606Z,100346.89
2018-08-04T23:35:57.720Z,100357.65
2018-08-04T23:38:25.629Z,100355.97
2018-08-04T23:40:53.222Z,100366.67
2018-08-04T23:43:20.856Z,100367.84
2018-08-04T23:45:48.528Z,100364.21
2018-08-04T23:48:16.358Z,100365.89
2018-08-04T23:50:44.851Z,100364.39
2018-08-04T23:53:13.455Z,100362.50
2018-08-04T23:55:45.143Z,100365.44
2018-08-04T23:58:13.635Z,100368.29
